sensor_id;sensor_type;location;lat;lon;timestamp;temperature;humidity
2042;DHT22;1026;51.460;7.252;2022-12-05T00:00:53;4.50;90.80
2042;DHT22;1026;51.460;7.252;2022-12-05T00:03:20;4.60;90.90
2042;DHT22;1026;51.460;7.252;2022-12-05T00:05:45;4.60;90.90
2042;DHT22;1026;51.460;7.252;2022-12-05T00:08:11;4.50;90.80
2042;DHT22;1026;51.460;7.252;2022-12-05T00:10:38;4.50;90.90
2042;DHT22;1026;51.460;7.252;2022-12-05T00:13:03;4.50;90.90
2042;DHT22;1026;51.460;7.252;2022-12-05T00:15:29;4.60;90.90
2042;DHT22;1026;51.460;7.252;2022-12-05T00:17:55;4.60;90.90
2042;DHT22;1026;51.460;7.252;2022-12-05T00:20:20;4.60;90.90
2042;DHT22;1026;51.460;7.252;2022-12-05T00:22:46;4.60;90.90
2042;DHT22;1026;51.460;7.252;2022-12-05T00:25:12;4.60;90.90
2042;DHT22;1026;51.460;7.252;2022-12-05T00:27:37;4.60;90.90
2042;DHT22;1026;51.460;7.252;2022-12-05T00:30:05;4.60;90.90
2042;DHT22;1026;51.460;7.252;2022-12-05T00:32:31;4.60;90.90
2042;DHT22;1026;51.460;7.252;2022-12-05T00:34:57;4.50;90.90
2042;DHT22;1026;51.460;7.252;2022-12-05T00:37:23;4.60;90.90
2042;DHT22;1026;51.460;7.252;2022-12-05T00:39:48;4.50;90.90
2042;DHT22;1026;51.460;7.252;2022-12-05T00:42:14;4.50;90.90
2042;DHT22;1026;51.460;7.252;2022-12-05T00:44:40;4.60;90.90
2042;DHT22;1026;51.460;7.252;2022-12-05T00:47:06;4.60;90.90
2042;DHT22;1026;51.460;7.252;2022-12-05T00:49:31;4.60;90.90
2042;DHT22;1026;51.460;7.252;2022-12-05T00:51:57;4.60;90.90
2042;DHT22;1026;51.460;7.252;2022-12-05T00:54:23;4.50;90.90
2042;DHT22;1026;51.460;7.252;2022-12-05T00:56:48;4.60;90.90
2042;DHT22;1026;51.460;7.252;2022-12-05T00:59:18;4.60;90.90
2042;DHT22;1026;51.460;7.252;2022-12-05T01:01:46;4.60;90.90
2042;DHT22;1026;51.460;7.252;2022-12-05T01:04:16;4.50;90.90
2042;DHT22;1026;51.460;7.252;2022-12-05T01:06:42;4.60;90.90
2042;DHT22;1026;51.460;7.252;2022-12-05T01:09:11;4.50;90.90
2042;DHT22;1026;51.460;7.252;2022-12-05T01:11:37;4.60;90.90
2042;DHT22;1026;51.460;7.252;2022-12-05T01:14:03;4.60;90.90
2042;DHT22;1026;51.460;7.252;2022-12-05T01:16:32;4.60;90.90
2042;DHT22;1026;51.460;7.252;2022-12-05T01:19:00;4.50;90.90
2042;DHT22;1026;51.460;7.252;2022-12-05T01:21:26;4.60;90.90
2042;DHT22;1026;51.460;7.252;2022-12-05T01:23:52;4.60;90.90
2042;DHT22;1026;51.460;7.252;2022-12-05T01:26:20;4.60;90.90
2042;DHT22;1026;51.460;7.252;2022-12-05T01:28:47;4.60;90.90
2042;DHT22;1026;51.460;7.252;2022-12-05T01:33:39;4.50;90.90
2042;DHT22;1026;51.460;7.252;2022-12-05T01:36:09;4.60;90.90
2042;DHT22;1026;51.460;7.252;2022-12-05T01:38:35;4.60;90.90
2042;DHT22;1026;51.460;7.252;2022-12-05T01:41:03;4.60;90.90
2042;DHT22;1026;51.460;7.252;2022-12-05T01:43:29;4.40;90.90
2042;DHT22;1026;51.460;7.252;2022-12-05T01:45:55;4.60;91.00
2042;DHT22;1026;51.460;7.252;2022-12-05T01:48:25;4.60;91.00
2042;DHT22;1026;51.460;7.252;2022-12-05T01:50:51;4.60;91.00
2042;DHT22;1026;51.460;7.252;2022-12-05T01:53:17;4.60;91.00
2042;DHT22;1026;51.460;7.252;2022-12-05T01:55:45;4.60;91.00
2042;DHT22;1026;51.460;7.252;2022-12-05T01:58:11;4.60;91.00
2042;DHT22;1026;51.460;7.252;2022-12-05T02:00:38;4.60;91.00
2042;DHT22;1026;51.460;7.252;2022-12-05T02:03:08;4.50;90.90
2042;DHT22;1026;51.460;7.252;2022-12-05T02:05:36;4.60;91.00
2042;DHT22;1026;51.460;7.252;2022-12-05T02:08:06;4.60;91.00
2042;DHT22;1026;51.460;7.252;2022-12-05T02:10:37;4.60;91.00
2042;DHT22;1026;51.460;7.252;2022-12-05T02:16:05;4.60;91.00
2042;DHT22;1026;51.460;7.252;2022-12-05T02:18:37;4.50;91.00
2042;DHT22;1026;51.460;7.252;2022-12-05T02:23:52;4.60;91.00
2042;DHT22;1026;51.460;7.252;2022-12-05T02:37:05;4.60;91.00
2042;DHT22;1026;51.460;7.252;2022-12-05T02:42:32;4.60;91.00
2042;DHT22;1026;51.460;7.252;2022-12-05T02:45:06;4.60;91.00
2042;DHT22;1026;51.460;7.252;2022-12-05T02:47:37;4.60;91.00
2042;DHT22;1026;51.460;7.252;2022-12-05T02:50:06;4.50;90.90
2042;DHT22;1026;51.460;7.252;2022-12-05T02:52:33;4.60;91.00
2042;DHT22;1026;51.460;7.252;2022-12-05T02:55:00;4.60;91.00
2042;DHT22;1026;51.460;7.252;2022-12-05T02:57:27;4.60;91.00
2042;DHT22;1026;51.460;7.252;2022-12-05T02:59:53;4.60;91.00
2042;DHT22;1026;51.460;7.252;2022-12-05T03:02:29;4.60;91.00
2042;DHT22;1026;51.460;7.252;2022-12-05T03:07:40;4.60;91.00
2042;DHT22;1026;51.460;7.252;2022-12-05T03:10:07;4.60;91.00
2042;DHT22;1026;51.460;7.252;2022-12-05T03:12:37;4.60;91.00
2042;DHT22;1026;51.460;7.252;2022-12-05T03:15:09;4.50;91.00
2042;DHT22;1026;51.460;7.252;2022-12-05T03:17:43;4.60;91.00
2042;DHT22;1026;51.460;7.252;2022-12-05T03:20:18;4.60;91.00
2042;DHT22;1026;51.460;7.252;2022-12-05T03:22:48;4.60;91.00
2042;DHT22;1026;51.460;7.252;2022-12-05T03:25:16;4.50;91.00
2042;DHT22;1026;51.460;7.252;2022-12-05T03:27:52;4.60;91.00
2042;DHT22;1026;51.460;7.252;2022-12-05T03:30:23;4.60;91.00
2042;DHT22;1026;51.460;7.252;2022-12-05T03:33:00;4.60;91.40
2042;DHT22;1026;51.460;7.252;2022-12-05T03:35:36;4.50;91.00
2042;DHT22;1026;51.460;7.252;2022-12-05T03:38:15;4.60;91.10
2042;DHT22;1026;51.460;7.252;2022-12-05T03:40:59;4.60;91.00
2042;DHT22;1026;51.460;7.252;2022-12-05T03:46:11;4.60;91.00
2042;DHT22;1026;51.460;7.252;2022-12-05T03:49:03;4.60;91.10
2042;DHT22;1026;51.460;7.252;2022-12-05T03:51:36;4.60;91.00
2042;DHT22;1026;51.460;7.252;2022-12-05T03:54:07;4.60;91.10
2042;DHT22;1026;51.460;7.252;2022-12-05T03:56:41;4.60;91.10
2042;DHT22;1026;51.460;7.252;2022-12-05T04:01:54;4.60;91.10
2042;DHT22;1026;51.460;7.252;2022-12-05T04:04:29;4.60;91.10
2042;DHT22;1026;51.460;7.252;2022-12-05T04:07:00;4.60;91.10
2042;DHT22;1026;51.460;7.252;2022-12-05T04:09:32;4.60;91.10
2042;DHT22;1026;51.460;7.252;2022-12-05T04:12:03;4.60;91.10
2042;DHT22;1026;51.460;7.252;2022-12-05T04:14:34;4.60;91.10
2042;DHT22;1026;51.460;7.252;2022-12-05T04:22:22;4.60;91.10
2042;DHT22;1026;51.460;7.252;2022-12-05T04:24:50;4.60;91.10
2042;DHT22;1026;51.460;7.252;2022-12-05T04:28:46;4.60;91.10
2042;DHT22;1026;51.460;7.252;2022-12-05T04:30:32;4.60;91.10
2042;DHT22;1026;51.460;7.252;2022-12-05T04:33:17;4.60;91.10
2042;DHT22;1026;51.460;7.252;2022-12-05T04:35:52;4.60;91.10
2042;DHT22;1026;51.460;7.252;2022-12-05T04:38:20;4.60;91.10
2042;DHT22;1026;51.460;7.252;2022-12-05T04:40:53;4.50;91.10
2042;DHT22;1026;51.460;7.252;2022-12-05T04:43:22;4.60;91.20
2042;DHT22;1026;51.460;7.252;2022-12-05T04:45:50;4.60;91.10
2042;DHT22;1026;51.460;7.252;2022-12-05T04:48:17;4.60;91.10
2042;DHT22;1026;51.460;7.252;2022-12-05T04:50:45;4.60;91.10
2042;DHT22;1026;51.460;7.252;2022-12-05T04:53:13;4.50;91.10
2042;DHT22;1026;51.460;7.252;2022-12-05T04:55:45;4.60;91.10
2042;DHT22;1026;51.460;7.252;2022-12-05T04:58:16;4.60;91.10
2042;DHT22;1026;51.460;7.252;2022-12-05T05:00:50;4.60;91.10
2042;DHT22;1026;51.460;7.252;2022-12-05T05:03:29;4.60;91.10
2042;DHT22;1026;51.460;7.252;2022-12-05T05:05:58;4.60;91.10
2042;DHT22;1026;51.460;7.252;2022-12-05T05:08:26;4.60;91.10
2042;DHT22;1026;51.460;7.252;2022-12-05T05:13:26;4.60;91.20
2042;DHT22;1026;51.460;7.252;2022-12-05T05:15:51;4.60;91.10
2042;DHT22;1026;51.460;7.252;2022-12-05T05:18:17;4.60;91.10
2042;DHT22;1026;51.460;7.252;2022-12-05T05:20:43;4.60;91.10
2042;DHT22;1026;51.460;7.252;2022-12-05T05:23:08;4.60;91.10
2042;DHT22;1026;51.460;7.252;2022-12-05T05:25:34;4.60;91.10
2042;DHT22;1026;51.460;7.252;2022-12-05T05:28:00;4.60;91.10
2042;DHT22;1026;51.460;7.252;2022-12-05T05:30:26;4.60;91.10
2042;DHT22;1026;51.460;7.252;2022-12-05T05:32:52;4.60;91.10
2042;DHT22;1026;51.460;7.252;2022-12-05T05:35:18;4.60;91.20
2042;DHT22;1026;51.460;7.252;2022-12-05T05:37:44;4.60;91.20
2042;DHT22;1026;51.460;7.252;2022-12-05T05:40:12;4.60;91.10
2042;DHT22;1026;51.460;7.252;2022-12-05T05:42:47;4.60;91.20
2042;DHT22;1026;51.460;7.252;2022-12-05T05:45:15;4.60;91.20
2042;DHT22;1026;51.460;7.252;2022-12-05T05:47:41;4.60;91.20
2042;DHT22;1026;51.460;7.252;2022-12-05T05:50:07;4.60;91.20
2042;DHT22;1026;51.460;7.252;2022-12-05T05:52:35;4.60;91.20
2042;DHT22;1026;51.460;7.252;2022-12-05T05:55:02;4.60;91.20
2042;DHT22;1026;51.460;7.252;2022-12-05T05:57:29;4.60;91.20
2042;DHT22;1026;51.460;7.252;2022-12-05T05:59:54;4.60;91.20
2042;DHT22;1026;51.460;7.252;2022-12-05T06:02:20;4.60;91.20
2042;DHT22;1026;51.460;7.252;2022-12-05T06:04:46;4.50;91.10
2042;DHT22;1026;51.460;7.252;2022-12-05T06:07:11;4.60;91.20
2042;DHT22;1026;51.460;7.252;2022-12-05T06:09:37;4.60;91.20
2042;DHT22;1026;51.460;7.252;2022-12-05T06:12:03;4.60;91.20
2042;DHT22;1026;51.460;7.252;2022-12-05T06:14:29;4.60;91.10
2042;DHT22;1026;51.460;7.252;2022-12-05T06:16:54;4.60;91.20
2042;DHT22;1026;51.460;7.252;2022-12-05T06:19:20;4.60;91.20
2042;DHT22;1026;51.460;7.252;2022-12-05T06:21:55;4.60;91.20
2042;DHT22;1026;51.460;7.252;2022-12-05T06:24:21;4.60;91.20
2042;DHT22;1026;51.460;7.252;2022-12-05T06:26:47;4.60;91.20
2042;DHT22;1026;51.460;7.252;2022-12-05T06:29:12;4.60;91.20
2042;DHT22;1026;51.460;7.252;2022-12-05T06:31:38;4.60;91.20
2042;DHT22;1026;51.460;7.252;2022-12-05T06:34:05;4.60;91.20
2042;DHT22;1026;51.460;7.252;2022-12-05T06:36:31;4.60;91.20
2042;DHT22;1026;51.460;7.252;2022-12-05T06:38:57;4.60;91.20
2042;DHT22;1026;51.460;7.252;2022-12-05T06:41:23;4.60;91.20
2042;DHT22;1026;51.460;7.252;2022-12-05T06:43:53;4.60;91.20
2042;DHT22;1026;51.460;7.252;2022-12-05T06:46:19;4.60;91.20
2042;DHT22;1026;51.460;7.252;2022-12-05T06:48:45;4.60;91.20
2042;DHT22;1026;51.460;7.252;2022-12-05T06:51:13;4.60;91.20
2042;DHT22;1026;51.460;7.252;2022-12-05T06:53:39;4.60;91.20
2042;DHT22;1026;51.460;7.252;2022-12-05T06:56:09;4.60;91.20
2042;DHT22;1026;51.460;7.252;2022-12-05T06:58:35;4.60;91.20
2042;DHT22;1026;51.460;7.252;2022-12-05T07:01:01;4.50;91.20
2042;DHT22;1026;51.460;7.252;2022-12-05T07:03:42;4.50;91.20
2042;DHT22;1026;51.460;7.252;2022-12-05T07:06:08;4.40;91.10
2042;DHT22;1026;51.460;7.252;2022-12-05T07:08:34;4.60;91.20
2042;DHT22;1026;51.460;7.252;2022-12-05T07:11:01;4.60;91.30
2042;DHT22;1026;51.460;7.252;2022-12-05T07:13:27;4.50;91.20
2042;DHT22;1026;51.460;7.252;2022-12-05T07:15:53;4.60;91.20
2042;DHT22;1026;51.460;7.252;2022-12-05T07:18:18;4.60;91.30
2042;DHT22;1026;51.460;7.252;2022-12-05T07:20:44;4.50;91.20
2042;DHT22;1026;51.460;7.252;2022-12-05T07:23:10;4.60;91.30
2042;DHT22;1026;51.460;7.252;2022-12-05T07:25:39;4.60;91.30
2042;DHT22;1026;51.460;7.252;2022-12-05T07:28:06;4.50;91.20
2042;DHT22;1026;51.460;7.252;2022-12-05T07:30:33;4.60;91.30
2042;DHT22;1026;51.460;7.252;2022-12-05T07:32:59;4.50;91.20
2042;DHT22;1026;51.460;7.252;2022-12-05T07:35:24;4.60;91.20
2042;DHT22;1026;51.460;7.252;2022-12-05T07:37:50;4.60;91.20
2042;DHT22;1026;51.460;7.252;2022-12-05T07:40:16;4.60;91.20
2042;DHT22;1026;51.460;7.252;2022-12-05T07:42:41;4.60;91.20
2042;DHT22;1026;51.460;7.252;2022-12-05T07:45:07;4.50;91.20
2042;DHT22;1026;51.460;7.252;2022-12-05T07:47:33;4.50;91.20
2042;DHT22;1026;51.460;7.252;2022-12-05T07:49:59;4.50;91.20
2042;DHT22;1026;51.460;7.252;2022-12-05T07:52:25;4.60;91.20
2042;DHT22;1026;51.460;7.252;2022-12-05T07:54:51;4.50;91.20
2042;DHT22;1026;51.460;7.252;2022-12-05T07:57:16;4.60;91.20
2042;DHT22;1026;51.460;7.252;2022-12-05T07:59:42;4.60;91.20
2042;DHT22;1026;51.460;7.252;2022-12-05T08:02:08;4.60;91.20
2042;DHT22;1026;51.460;7.252;2022-12-05T08:04:34;4.50;91.10
2042;DHT22;1026;51.460;7.252;2022-12-05T08:07:02;4.60;91.20
2042;DHT22;1026;51.460;7.252;2022-12-05T08:09:28;4.60;91.20
2042;DHT22;1026;51.460;7.252;2022-12-05T08:11:54;4.60;91.20
2042;DHT22;1026;51.460;7.252;2022-12-05T08:14:19;4.60;91.20
2042;DHT22;1026;51.460;7.252;2022-12-05T08:16:46;4.60;91.20
2042;DHT22;1026;51.460;7.252;2022-12-05T08:19:11;4.50;91.20
2042;DHT22;1026;51.460;7.252;2022-12-05T08:21:38;4.50;91.20
2042;DHT22;1026;51.460;7.252;2022-12-05T08:24:24;4.50;91.20
2042;DHT22;1026;51.460;7.252;2022-12-05T08:26:49;4.50;91.20
2042;DHT22;1026;51.460;7.252;2022-12-05T08:29:19;4.50;91.20
2042;DHT22;1026;51.460;7.252;2022-12-05T08:31:47;4.50;91.20
2042;DHT22;1026;51.460;7.252;2022-12-05T08:34:14;4.50;91.20
2042;DHT22;1026;51.460;7.252;2022-12-05T08:36:40;4.50;91.20
2042;DHT22;1026;51.460;7.252;2022-12-05T08:39:09;4.40;91.20
2042;DHT22;1026;51.460;7.252;2022-12-05T08:41:36;4.50;91.50
2042;DHT22;1026;51.460;7.252;2022-12-05T08:44:04;4.50;91.20
2042;DHT22;1026;51.460;7.252;2022-12-05T08:46:32;4.50;91.20
2042;DHT22;1026;51.460;7.252;2022-12-05T08:48:58;4.50;91.20
2042;DHT22;1026;51.460;7.252;2022-12-05T08:51:24;4.50;91.20
2042;DHT22;1026;51.460;7.252;2022-12-05T08:53:49;4.50;91.20
2042;DHT22;1026;51.460;7.252;2022-12-05T08:56:15;4.40;91.20
2042;DHT22;1026;51.460;7.252;2022-12-05T08:58:41;4.50;91.20
2042;DHT22;1026;51.460;7.252;2022-12-05T09:01:10;4.50;91.20
2042;DHT22;1026;51.460;7.252;2022-12-05T09:03:36;4.50;91.20
2042;DHT22;1026;51.460;7.252;2022-12-05T09:06:08;4.50;91.20
2042;DHT22;1026;51.460;7.252;2022-12-05T09:08:35;4.50;91.30
2042;DHT22;1026;51.460;7.252;2022-12-05T09:11:18;4.50;91.20
2042;DHT22;1026;51.460;7.252;2022-12-05T09:13:45;4.40;91.30
2042;DHT22;1026;51.460;7.252;2022-12-05T09:18:39;4.40;91.40
2042;DHT22;1026;51.460;7.252;2022-12-05T09:21:06;4.40;91.30
2042;DHT22;1026;51.460;7.252;2022-12-05T09:23:32;4.40;91.30
2042;DHT22;1026;51.460;7.252;2022-12-05T09:25:58;4.40;91.30
2042;DHT22;1026;51.460;7.252;2022-12-05T09:28:28;4.40;91.30
2042;DHT22;1026;51.460;7.252;2022-12-05T09:30:57;4.40;91.30
2042;DHT22;1026;51.460;7.252;2022-12-05T09:33:23;4.40;91.30
2042;DHT22;1026;51.460;7.252;2022-12-05T09:35:49;4.40;91.30
2042;DHT22;1026;51.460;7.252;2022-12-05T09:38:15;4.30;91.30
2042;DHT22;1026;51.460;7.252;2022-12-05T09:40:41;4.40;91.30
2042;DHT22;1026;51.460;7.252;2022-12-05T09:43:13;4.40;91.30
2042;DHT22;1026;51.460;7.252;2022-12-05T09:45:53;4.30;91.30
2042;DHT22;1026;51.460;7.252;2022-12-05T09:48:21;4.40;91.40
2042;DHT22;1026;51.460;7.252;2022-12-05T09:50:53;4.40;91.40
2042;DHT22;1026;51.460;7.252;2022-12-05T09:53:27;4.40;91.40
2042;DHT22;1026;51.460;7.252;2022-12-05T09:58:43;4.40;91.40
2042;DHT22;1026;51.460;7.252;2022-12-05T10:06:36;4.40;91.40
2042;DHT22;1026;51.460;7.252;2022-12-05T10:19:46;4.40;91.40
2042;DHT22;1026;51.460;7.252;2022-12-05T10:22:20;4.40;91.40
2042;DHT22;1026;51.460;7.252;2022-12-05T10:24:51;4.40;91.40
2042;DHT22;1026;51.460;7.252;2022-12-05T10:27:23;4.40;91.40
2042;DHT22;1026;51.460;7.252;2022-12-05T10:30:03;4.40;91.40
2042;DHT22;1026;51.460;7.252;2022-12-05T10:32:39;4.40;91.40
2042;DHT22;1026;51.460;7.252;2022-12-05T10:35:22;4.40;91.40
2042;DHT22;1026;51.460;7.252;2022-12-05T10:37:53;4.40;91.40
2042;DHT22;1026;51.460;7.252;2022-12-05T10:40:20;4.40;91.40
2042;DHT22;1026;51.460;7.252;2022-12-05T10:42:46;4.30;91.40
2042;DHT22;1026;51.460;7.252;2022-12-05T10:45:18;4.40;91.50
2042;DHT22;1026;51.460;7.252;2022-12-05T10:47:45;4.40;91.50
2042;DHT22;1026;51.460;7.252;2022-12-05T10:52:48;4.30;91.40
2042;DHT22;1026;51.460;7.252;2022-12-05T10:55:16;4.40;91.40
2042;DHT22;1026;51.460;7.252;2022-12-05T10:57:49;4.30;91.40
2042;DHT22;1026;51.460;7.252;2022-12-05T11:00:19;4.30;91.40
2042;DHT22;1026;51.460;7.252;2022-12-05T11:02:47;4.40;91.40
2042;DHT22;1026;51.460;7.252;2022-12-05T11:05:13;4.40;91.40
2042;DHT22;1026;51.460;7.252;2022-12-05T11:07:47;4.40;91.40
2042;DHT22;1026;51.460;7.252;2022-12-05T11:10:30;4.20;91.30
2042;DHT22;1026;51.460;7.252;2022-12-05T11:12:58;4.30;91.40
2042;DHT22;1026;51.460;7.252;2022-12-05T11:15:27;4.40;91.50
2042;DHT22;1026;51.460;7.252;2022-12-05T11:17:55;4.40;91.50
2042;DHT22;1026;51.460;7.252;2022-12-05T11:22:50;4.40;91.40
2042;DHT22;1026;51.460;7.252;2022-12-05T11:25:29;4.40;91.50
2042;DHT22;1026;51.460;7.252;2022-12-05T11:27:57;4.40;91.40
2042;DHT22;1026;51.460;7.252;2022-12-05T11:30:26;4.30;91.40
2042;DHT22;1026;51.460;7.252;2022-12-05T11:33:10;4.30;91.40
2042;DHT22;1026;51.460;7.252;2022-12-05T11:35:36;4.40;91.50
2042;DHT22;1026;51.460;7.252;2022-12-05T11:38:04;4.40;91.40
2042;DHT22;1026;51.460;7.252;2022-12-05T11:46:39;4.40;91.50
2042;DHT22;1026;51.460;7.252;2022-12-05T11:54:41;4.30;91.40
2042;DHT22;1026;51.460;7.252;2022-12-05T12:00:14;4.30;91.40
2042;DHT22;1026;51.460;7.252;2022-12-05T12:06:06;4.30;91.40
2042;DHT22;1026;51.460;7.252;2022-12-05T12:08:51;4.30;91.40
2042;DHT22;1026;51.460;7.252;2022-12-05T12:14:10;4.20;91.40
2042;DHT22;1026;51.460;7.252;2022-12-05T12:22:09;4.30;91.40
2042;DHT22;1026;51.460;7.252;2022-12-05T12:30:21;4.30;91.50
2042;DHT22;1026;51.460;7.252;2022-12-05T12:33:10;4.30;91.50
2042;DHT22;1026;51.460;7.252;2022-12-05T12:35:49;4.30;91.40
2042;DHT22;1026;51.460;7.252;2022-12-05T12:38:21;4.30;91.40
2042;DHT22;1026;51.460;7.252;2022-12-05T12:40:55;4.30;91.40
2042;DHT22;1026;51.460;7.252;2022-12-05T12:43:36;4.30;91.40
2042;DHT22;1026;51.460;7.252;2022-12-05T12:51:53;4.30;91.50
2042;DHT22;1026;51.460;7.252;2022-12-05T12:58:38;4.30;91.50
2042;DHT22;1026;51.460;7.252;2022-12-05T13:00:36;4.30;91.50
2042;DHT22;1026;51.460;7.252;2022-12-05T13:03:16;4.30;91.50
2042;DHT22;1026;51.460;7.252;2022-12-05T13:05:50;4.20;91.40
2042;DHT22;1026;51.460;7.252;2022-12-05T13:10:54;4.20;91.40
2042;DHT22;1026;51.460;7.252;2022-12-05T13:13:29;4.20;91.40
2042;DHT22;1026;51.460;7.252;2022-12-05T13:15:57;4.20;91.40
2042;DHT22;1026;51.460;7.252;2022-12-05T13:18:26;4.20;91.50
2042;DHT22;1026;51.460;7.252;2022-12-05T13:20:54;4.20;91.40
2042;DHT22;1026;51.460;7.252;2022-12-05T13:23:23;4.10;91.40
2042;DHT22;1026;51.460;7.252;2022-12-05T13:25:52;4.20;91.50
2042;DHT22;1026;51.460;7.252;2022-12-05T13:28:35;4.10;91.40
2042;DHT22;1026;51.460;7.252;2022-12-05T13:31:09;4.20;91.40
2042;DHT22;1026;51.460;7.252;2022-12-05T13:33:42;4.20;91.40
2042;DHT22;1026;51.460;7.252;2022-12-05T13:36:09;4.20;91.40
2042;DHT22;1026;51.460;7.252;2022-12-05T13:38:56;4.10;91.40
2042;DHT22;1026;51.460;7.252;2022-12-05T13:41:39;4.10;91.40
2042;DHT22;1026;51.460;7.252;2022-12-05T13:44:28;4.20;91.50
2042;DHT22;1026;51.460;7.252;2022-12-05T13:46:54;4.20;91.40
2042;DHT22;1026;51.460;7.252;2022-12-05T13:49:40;4.20;91.50
2042;DHT22;1026;51.460;7.252;2022-12-05T13:52:22;4.20;91.50
2042;DHT22;1026;51.460;7.252;2022-12-05T13:55:01;4.20;91.50
2042;DHT22;1026;51.460;7.252;2022-12-05T13:57:45;4.20;91.40
2042;DHT22;1026;51.460;7.252;2022-12-05T14:07:42;4.20;91.50
2042;DHT22;1026;51.460;7.252;2022-12-05T14:10:11;4.20;91.50
2042;DHT22;1026;51.460;7.252;2022-12-05T14:15:33;4.10;91.40
2042;DHT22;1026;51.460;7.252;2022-12-05T14:18:08;4.10;91.40
2042;DHT22;1026;51.460;7.252;2022-12-05T14:34:21;4.20;91.50
2042;DHT22;1026;51.460;7.252;2022-12-05T14:37:23;4.10;91.40
2042;DHT22;1026;51.460;7.252;2022-12-05T14:39:53;4.10;91.50
2042;DHT22;1026;51.460;7.252;2022-12-05T14:42:41;4.00;91.40
2042;DHT22;1026;51.460;7.252;2022-12-05T14:47:56;4.10;91.40
2042;DHT22;1026;51.460;7.252;2022-12-05T14:50:35;4.00;91.40
2042;DHT22;1026;51.460;7.252;2022-12-05T15:04:18;4.10;91.60
2042;DHT22;1026;51.460;7.252;2022-12-05T15:06:48;4.10;91.40
2042;DHT22;1026;51.460;7.252;2022-12-05T15:11:56;4.10;91.40
2042;DHT22;1026;51.460;7.252;2022-12-05T15:14:27;4.10;91.50
2042;DHT22;1026;51.460;7.252;2022-12-05T15:16:59;4.10;91.50
2042;DHT22;1026;51.460;7.252;2022-12-05T15:19:36;4.00;91.40
2042;DHT22;1026;51.460;7.252;2022-12-05T15:22:06;4.20;91.50
2042;DHT22;1026;51.460;7.252;2022-12-05T15:24:39;4.10;91.40
2042;DHT22;1026;51.460;7.252;2022-12-05T15:27:09;4.10;91.70
2042;DHT22;1026;51.460;7.252;2022-12-05T15:29:38;4.10;91.50
2042;DHT22;1026;51.460;7.252;2022-12-05T15:32:14;4.10;91.50
2042;DHT22;1026;51.460;7.252;2022-12-05T15:34:59;4.10;91.40
2042;DHT22;1026;51.460;7.252;2022-12-05T15:40:10;4.10;91.40
2042;DHT22;1026;51.460;7.252;2022-12-05T15:45:26;4.10;91.40
2042;DHT22;1026;51.460;7.252;2022-12-05T15:50:49;4.20;91.40
2042;DHT22;1026;51.460;7.252;2022-12-05T15:53:34;4.10;91.40
2042;DHT22;1026;51.460;7.252;2022-12-05T15:56:19;4.10;91.40
2042;DHT22;1026;51.460;7.252;2022-12-05T15:58:53;4.00;91.40
2042;DHT22;1026;51.460;7.252;2022-12-05T16:01:22;4.10;91.40
2042;DHT22;1026;51.460;7.252;2022-12-05T16:04:01;4.10;91.40
2042;DHT22;1026;51.460;7.252;2022-12-05T16:08:56;3.90;91.30
2042;DHT22;1026;51.460;7.252;2022-12-05T16:11:22;4.10;91.40
2042;DHT22;1026;51.460;7.252;2022-12-05T16:13:54;4.00;91.40
2042;DHT22;1026;51.460;7.252;2022-12-05T16:16:25;4.10;91.40
2042;DHT22;1026;51.460;7.252;2022-12-05T16:18:55;4.00;91.40
2042;DHT22;1026;51.460;7.252;2022-12-05T16:22:05;3.90;91.40
2042;DHT22;1026;51.460;7.252;2022-12-05T16:24:28;4.00;91.40
2042;DHT22;1026;51.460;7.252;2022-12-05T16:27:02;4.00;91.50
2042;DHT22;1026;51.460;7.252;2022-12-05T16:29:32;4.00;91.40
2042;DHT22;1026;51.460;7.252;2022-12-05T16:32:01;4.00;91.40
2042;DHT22;1026;51.460;7.252;2022-12-05T16:34:32;4.00;91.50
2042;DHT22;1026;51.460;7.252;2022-12-05T16:36:58;4.00;91.50
2042;DHT22;1026;51.460;7.252;2022-12-05T16:39:26;4.00;91.40
2042;DHT22;1026;51.460;7.252;2022-12-05T16:41:54;4.00;91.50
2042;DHT22;1026;51.460;7.252;2022-12-05T16:44:52;4.00;91.40
2042;DHT22;1026;51.460;7.252;2022-12-05T16:50:32;3.90;91.40
2042;DHT22;1026;51.460;7.252;2022-12-05T16:53:12;4.00;91.50
2042;DHT22;1026;51.460;7.252;2022-12-05T16:55:40;4.00;91.50
2042;DHT22;1026;51.460;7.252;2022-12-05T16:58:11;3.90;91.40
2042;DHT22;1026;51.460;7.252;2022-12-05T17:00:38;4.00;91.40
2042;DHT22;1026;51.460;7.252;2022-12-05T17:03:04;4.00;91.50
2042;DHT22;1026;51.460;7.252;2022-12-05T17:05:34;4.00;91.80
2042;DHT22;1026;51.460;7.252;2022-12-05T17:07:59;4.00;91.50
2042;DHT22;1026;51.460;7.252;2022-12-05T17:10:25;4.00;91.50
2042;DHT22;1026;51.460;7.252;2022-12-05T17:12:51;4.00;91.50
2042;DHT22;1026;51.460;7.252;2022-12-05T17:15:18;4.00;91.40
2042;DHT22;1026;51.460;7.252;2022-12-05T17:17:44;4.00;91.50
2042;DHT22;1026;51.460;7.252;2022-12-05T17:20:10;4.00;91.50
2042;DHT22;1026;51.460;7.252;2022-12-05T17:22:38;4.00;91.50
2042;DHT22;1026;51.460;7.252;2022-12-05T17:25:16;4.00;91.40
2042;DHT22;1026;51.460;7.252;2022-12-05T17:27:43;4.00;91.40
2042;DHT22;1026;51.460;7.252;2022-12-05T17:30:09;3.90;91.40
2042;DHT22;1026;51.460;7.252;2022-12-05T17:32:34;4.00;91.40
2042;DHT22;1026;51.460;7.252;2022-12-05T17:35:00;4.00;91.40
2042;DHT22;1026;51.460;7.252;2022-12-05T17:37:26;4.00;91.50
2042;DHT22;1026;51.460;7.252;2022-12-05T17:39:51;3.80;91.40
2042;DHT22;1026;51.460;7.252;2022-12-05T17:42:17;4.00;91.50
2042;DHT22;1026;51.460;7.252;2022-12-05T17:44:43;4.00;91.50
2042;DHT22;1026;51.460;7.252;2022-12-05T17:47:09;4.00;91.50
2042;DHT22;1026;51.460;7.252;2022-12-05T17:49:35;4.00;91.50
2042;DHT22;1026;51.460;7.252;2022-12-05T17:52:01;3.80;91.40
2042;DHT22;1026;51.460;7.252;2022-12-05T17:54:29;4.00;91.50
2042;DHT22;1026;51.460;7.252;2022-12-05T17:56:54;4.00;91.50
2042;DHT22;1026;51.460;7.252;2022-12-05T17:59:20;3.90;91.40
2042;DHT22;1026;51.460;7.252;2022-12-05T18:01:46;3.80;91.40
2042;DHT22;1026;51.460;7.252;2022-12-05T18:04:11;3.90;91.40
2042;DHT22;1026;51.460;7.252;2022-12-05T18:06:37;3.90;91.40
2042;DHT22;1026;51.460;7.252;2022-12-05T18:09:04;3.90;91.40
2042;DHT22;1026;51.460;7.252;2022-12-05T18:11:29;3.90;91.40
2042;DHT22;1026;51.460;7.252;2022-12-05T18:13:56;3.80;91.40
2042;DHT22;1026;51.460;7.252;2022-12-05T18:16:24;3.90;91.50
2042;DHT22;1026;51.460;7.252;2022-12-05T18:18:49;3.90;91.40
2042;DHT22;1026;51.460;7.252;2022-12-05T18:21:15;3.80;91.40
2042;DHT22;1026;51.460;7.252;2022-12-05T18:23:41;3.90;91.40
2042;DHT22;1026;51.460;7.252;2022-12-05T18:26:08;3.90;91.40
2042;DHT22;1026;51.460;7.252;2022-12-05T18:28:35;3.90;91.50
2042;DHT22;1026;51.460;7.252;2022-12-05T18:31:11;3.80;91.40
2042;DHT22;1026;51.460;7.252;2022-12-05T18:33:39;3.90;91.40
2042;DHT22;1026;51.460;7.252;2022-12-05T18:36:08;3.90;91.50
2042;DHT22;1026;51.460;7.252;2022-12-05T18:38:35;3.90;91.50
2042;DHT22;1026;51.460;7.252;2022-12-05T18:41:01;3.90;91.50
2042;DHT22;1026;51.460;7.252;2022-12-05T18:43:27;3.90;91.50
2042;DHT22;1026;51.460;7.252;2022-12-05T18:45:57;3.90;91.50
2042;DHT22;1026;51.460;7.252;2022-12-05T18:48:25;3.90;91.40
2042;DHT22;1026;51.460;7.252;2022-12-05T18:50:51;3.80;92.00
2042;DHT22;1026;51.460;7.252;2022-12-05T18:53:17;3.70;92.30
2042;DHT22;1026;51.460;7.252;2022-12-05T18:55:43;3.70;92.50
2042;DHT22;1026;51.460;7.252;2022-12-05T18:58:10;3.80;92.20
2042;DHT22;1026;51.460;7.252;2022-12-05T19:00:37;3.80;92.00
2042;DHT22;1026;51.460;7.252;2022-12-05T19:03:02;3.80;91.90
2042;DHT22;1026;51.460;7.252;2022-12-05T19:05:29;3.80;91.80
2042;DHT22;1026;51.460;7.252;2022-12-05T19:07:56;3.70;91.70
2042;DHT22;1026;51.460;7.252;2022-12-05T19:10:23;3.90;91.80
2042;DHT22;1026;51.460;7.252;2022-12-05T19:12:48;3.90;91.80
2042;DHT22;1026;51.460;7.252;2022-12-05T19:15:14;3.90;91.70